Extreme weather reports worldwide

Atmospheric pressure

Low pressure

Station
 
Location
 
Name
 
Wind
Knots
Gust
Knots
Vis
SM
Temp/Dew
C
Baro
inHg
METAR
 
NZSP AQ South Pole Station Airport 10 -60/ 28.27 NZSP 280550Z 08010KT 9999 IC SCT010 M60/ A2827 RMK CLN AIR 06013KT ALL WNDS GRID
NSK UOOO Norilsk, RU Norilsk-Alykel Airport 14 0/0 29.20 UOOO 280630Z 24007MPS 9999 BKN007 OVC012 00/00 Q0989 R19/620360 NOSIG RMK QFE726/0968
TNM SCRM Isla Rey Jorge, AQ Teniente Rodolfo Marsh Martin Base 18 0.75 -1/-1 29.26 SCRM 280600Z 31018KT 1200 BR OVC003 M01/M01 Q0991 NOSIG
YMT CYMT Chibougamau, CA Chapais Airport 12 18 9 15/15 29.27 CYMT 280651Z AUTO 16012G18KT 9SM -RA FEW010 OVC015 15/15 A2927 RMK SLP918 DENSITY ALT 2400FT
VEBN 7 3.11 46/13 29.29 VEBN 280630Z 24007KT 5000 HZ NSC 46/13 Q0992 NOSIG

Station
 
Location
 
Name
 
Wind
Knots
Gust
Knots
Vis
SM
Temp/Dew
C
Baro
inHg
METAR
 
YVO CYVO Val-d'Or, CA Val-d'Or Airport 17 25 6 13/13 29.29 CYVO 280629Z AUTO 33017G25KT 6SM RA BR BKN008 OVC011 13/13 A2929 RMK PCPN 2.0MM PAST HR SLP928 DENSITY ALT 1900FT
KCZ RJOK Nankoku, JP Kochi Ryoma Airport 15 25 23/18 29.32 RJOK 280634Z 35015G25KT 9999 VCSH FEW005 BKN050 23/18 Q0993 RMK 1ST005 7SC050 A2933
PAT VEPT Patna, IN Lok Nayak Jayaprakash Airport 6 3.73 41/28 29.32 VEPT 280630Z 11006KT 6000 NSC 41/28 Q0993 NOSIG
GAY VEGY IN Gaya Airport 8 3.11 43/21 29.32 VEGY 280630Z 24008KT 5000 HZ FEW020 43/21 Q0993 NOSIG
KIX RJBB Osaka, JP Kansai International Airport 10 1.24 18/17 29.35 RJBB 280635Z 10010KT 2000 R06R/1600VP2000N R06L/2000N +SHRA BR FEW001 SCT005 BKN010 FEW020CB 18/17 Q0994 RMK 1ST001 3ST005 5CU010 1CB020 A2938 CB 30KM SE MOV NE
LKO VILK Lucknow, IN Chaudhary Charan Singh International Airport 2 3.11 39/24 29.35 VILK 280630Z VRB02KT 5000 HZ NSC 39/24 Q0994 NOSIG
ATQ VIAR Amritsar, IN Sri Guru Ram Dass Jee International Airport 5 3.73 44/7 29.35 VIAR 280630Z 29005KT 6000 NSC 44/07 Q0994 NOSIG
DMU VEMR Dimapur, IN Dimapur Airport 8 1.55 27/26 29.35 VEMR 280630Z 01008KT 2500 RA FEW008 BKN018 FEW025CB BKN090 27/26 Q0994 TEMPO 1500 +RA
VEAY 2 3.11 36/22 29.35 VEAY 280630Z VRB02KT 5000 HZ NSC 36/22 Q0994 NOSIG
MUX OPMT Multan, PK Multan International Airport 6 3.11 42/14 29.35 OPMT 280630Z 05006KT 5000 HZ NSC 42/14 Q0994 NOSIG
ITM RJOO Osaka, JP Osaka International Airport 17 27 1.24 15/14 29.35 RJOO 280629Z 34017G27KT 320V020 2000 R32L/1400VP2000U SHRA BR FEW002 SCT008 BKN015 15/14 Q0994 RMK 1ST002 4ST008 6CU015 A2938
RJOY Yao, JP Yao Airport 14 1.24 17/17 29.35 RJOY 280628Z 35014KT 2000 +SHRA BR FEW002 SCT005 BKN015 FEW020CB 17/17 Q0994 RMK 1ST002 3ST005 5CU015 1CB020 A2937 CB 20KM SW MOV NE P/FR
LHE OPLA Lahore, PK Alama Iqbal International Airport 12 3.73 42/8 29.35 OPLA 280625Z 33012KT 6000 NSC 42/08 Q0994 TEMPO 34020G35KT RMK QFE969 A29.37
RJOP Komatsushima, JP JMSDF Komatsushima Heliport 17 27 1.99 18/16 29.35 RJOP 280621Z 30017G27KT 3200 -SHRA BR SCT005 BKN012 OVC025 FEW025CB 18/16 Q0994 RMK 3ST005 5CU012 8CU025 2CB025 A2938 CB 10KM NE MOV NE
TKS RJOS Tokushima, JP Tokushima Airport/JMSDF Air Base 13 3.11 17/17 29.35 RJOS 280615Z 31013KT 280V340 5000 -SHRA BR SCT004 OVC015 FEW015CB 17/17 Q0994 RMK 3ST004 8CU015 2CB015 A2937 CB 10KM NE MOV NE VIS VRB
VEKO 4 3.11 45/11 29.35 VEKO 280600Z 27004KT 5000 HZ NSC 45/11 Q0994
SHM RJBD Shirahama, JP Nanki Shirahama Airport 28 38 2.49 23/23 29.35 RJBD 280600Z 15028G38KT 4000 -SHRA BR FEW002 SCT005 BKN006 FEW020CB 23/23 Q0994
YNM CYNM Matagami, CA Matagami Airport 10 17 9 12/12 29.36 CYNM 280600Z AUTO 35010G17KT 9SM -RA BKN007 OVC014 12/12 A2936 RMK PCPN 1.2MM PAST HR SLP949 DENSITY ALT 1500FT
DEL VIDP New Delhi, IN Indira Gandhi International Airport 7 2.49 44/3 29.38 VIDP 280630Z 30007KT 200V330 4000 HZ NSC 44/03 Q0995 NOSIG
VEHO 18 1.86 26/24 29.38 VEHO 280630Z 04018KT 3000 -RA FEW010 SCT018 FEW025CB OVC080 26/24 Q0995 NOSIG
GAU VEGT Guwahati, IN Lokpriya Gopinath Bordoloi International Airport 10 20 0.93 28/27 29.38 VEGT 280630Z 30010G20KT 1500 R02/2000 RA FEW008 SCT016 FEW025CB OVC080 28/27 Q0995 NOSIG
COH VECO IN Cooch Behar Airport 8 3.11 34/28 29.38 VECO 280630Z 22008KT 5000 HZ SCT020 SCT025 34/28 Q0995 NOSIG
SGC USRR Surgut, RU Surgut Airport 10 5.59 3/2 29.38 USRR 280630Z 34005MPS 300V020 9000 -SHSNRA SCT009 BKN040CB 03/02 Q0995 R25/250250 TEMPO 0800 +SHSNRA VV003 RMK QFE741
RJOE JP Akeno Airport 24 36 0.93 23/21 29.38 RJOE 280612Z 18024G36KT 1500 +SHRA BR FEW008 SCT015 BKN025 23/21 Q0995 RMK 1ST008 3CU015 5CU025 A2940
VEKI 7 3.11 36/23 29.38 VEKI 280600Z 11007KT 5000 HZ NSC 36/23 Q0995 NOSIG
UKB RJBE Kobe, JP Kobe Airport 4 1.24 19/19 29.38 RJBE 280600Z 01004KT 280V050 2000 R09/1500VP2000N +SHRA BR FEW001 SCT004 BKN008 19/19 Q0995
SKT OPST Sialkot, PK Sialkot Airport 4 3.11 40/15 29.38 OPST 280600Z 05004KT 5000 HZ NSC 40/15 Q0995 NOSIG RH23
LYP OPFA Faisalabad, PK Faisalabad International Airport 4 3.11 44/5 29.38 OPFA 280555Z 05004KT 5000 HZ NSC 44/05 Q0995 NOSIG
NZCM 5 -25/-34 29.40 NZCM 280555Z AUTO 06005KT 9999 CLR M25/M34 A2940 RMK AO2 SLP963 T12501344 11234 21314 50005 $
YUY CYUY Rouyn-Noranda, CA Rouyn Noranda Airport 12 19 8 12/12 29.41 CYUY 280651Z 33012G19KT 8SM -RA OVC008 12/12 A2941 RMK SC8 SLP967 DENSITY ALT 1500FT
KQEY 4 23/9 29.41 KQEY 280640Z AUTO 32004KT 9999 FEW055 BKN095 23/09 A2941 RMK A02 TSNO
PGH VIPT Pantnagar, IN Pantnagar Airport 5 3.73 36/24 29.41 VIPT 280630Z 10005KT 6000 NSC 36/24 Q0996
RRK VERK IN Rourkela Airport 6 3.73 40/23 29.41 VERK 280630Z 21006KT 6000 SCT100 40/23 Q0996
JRG VEJH IN Jharsuguda Airport 8 3.73 40/24 29.41 VEJH 280630Z 25008KT 6000 FEW100 40/24 Q0996
RDP VEDG Durgapur, IN Kazi Nazrul Islam Airport 9 3.73 35/25 29.41 VEDG 280630Z 15009KT 6000 FEW100 35/25 Q0996 NOSIG
NJC USNN Nizhnevartovsk, RU Nizhnevartovsk Airport 14 4/3 29.41 USNN 280630Z 20007MPS 9999 -SHRA BKN011 BKN020CB 04/03 Q0996 R21/29//61 NOSIG RMK QFE742
NGO RJGG Tokoname, JP Chubu Centrair International Airport 26 1.86 23/22 29.41 RJGG 280630Z 15026KT 3000 SHRA BR FEW007 SCT015 BKN030 23/22 Q0996 TEMPO 13034G46KT 1500 +SHRA BR FEW002 BKN004
SKZ OPSK Mirpur Khas, PK Sukkur Airport 6 4.35 44/10 29.41 OPSK 280600Z 31006KT 7000 HZ NSC 44/10 Q0996 NOSIG
YRJ CYRJ Roberval, CA Roberval Airport 10 16 20 16/15 29.42 CYRJ 280600Z 16010G16KT 20SM -SHRA OVC020 16/15 A2942 RMK SC8 CVCTV CLD EMBD SLP966 DENSITY ALT 1500FT
IXI VELR Lilabari, IN North Lakhimpur Airport 14 1.55 25/25 29.44 VELR 280630Z 01014KT 2500 -RA SCT006 BKN016 FEW020CB OVC070 25/25 Q0997
VEDO 10 3.73 35/23 29.44 VEDO 280630Z 20010KT 6000 NSC 35/23 Q0997 NOSIG
CCU VECC Kolkata, IN Netaji Subhash Chandra Bose International Airport 6 2.8 33/27 29.44 VECC 280630Z 15006KT 4500 HZ SCT020 BKN100 33/27 Q0997 NOSIG
PEW OPPS Peshawar, PK Peshawar International Airport 18 39/2 29.44 OPPS 280630Z 36018KT 9999 NSC 39/02 Q0997
TAK RJOT Takamatsu, JP Takamatsu Airport 4 3.73 17/17 29.44 RJOT 280610Z 34004KT 260V030 6000 -SHRA BR FEW001 SCT005 BKN008 17/17 Q0997 RMK 1ST001 3ST005 5ST008 A2945
IXW VEJS Jamshedpur, IN Sonari Airport 6 3.11 34/25 29.44 VEJS 280600Z 11006KT 5000 HZ SCT020 SCT100 34/25 Q0997

High pressure

Station
 
Location
 
Name
 
Wind
Knots
Gust
Knots
Vis
SM
Temp/Dew
C
Baro
inHg
METAR
 
FDMY 0 16/15 30.68 FDMY 280600Z AUTO 00000KT //// // ////// 16/15 Q1039
LPB SLLP La Paz / El Alto, BO El Alto International Airport 2 -2/-7 30.68 SLLP 280600Z VRB02KT 9999 NSC M02/M07 Q1039
KCPW 4 5/-5 30.63 KCPW 280635Z AUTO 03004KT 10SM CLR 05/M05 A3063 RMK AO2
K0CO 8 1/-8 30.62 K0CO 280635Z AUTO 26008KT CLR 01/M08 A3062 RMK AO2 PWINO
KCCU 3 7/-6 30.61 KCCU 280635Z AUTO 24003KT 10SM CLR 07/M06 A3061 RMK AO2

Station
 
Location
 
Name
 
Wind
Knots
Gust
Knots
Vis
SM
Temp/Dew
C
Baro
inHg
METAR
 
KVTP 0 10/-12 30.60 KVTP 280635Z AUTO 00000KT 10SM CLR 10/M12 A3060 RMK AO2
FASI Del Fouche, ZA Springs Airfield 0 7/3 30.59 FASI 280600Z AUTO 00000KT //// // ////// 07/03 Q1036
K4BM 6 7/-4 30.59 K4BM 280635Z AUTO 13006KT 10SM CLR 07/M04 A3059 RMK AO2
FAEO Ermelo, ZA Ermelo Airport 2 12/8 30.56 FAEO 280633Z AUTO 32002KT //// // ////// 12/08 Q1035
K5SM 3 5/-5 30.55 K5SM 280635Z AUTO 08003KT 10SM CLR 05/M05 A3055 RMK AO2
KC99 0 6/-4 30.54 KC99 280636Z AUTO 00000KT 10SM CLR 06/M04 A3054 RMK AO2
CUZ SPZO Cusco, PE Alejandro Velasco Astete International Airport 2 7/4 30.53 SPZO 280600Z VRB02KT 9999 NSC 07/04 Q1034 RMK BIRD HAZARD RWY 10/28 PP000
KC07 3 6/-6 30.51 KC07 280635Z AUTO 30003KT 10SM CLR 06/M06 A3051 RMK AO2
PTG FAPP Polokwane, ZA Polokwane International Airport 3 10/10 30.50 FAPP 280600Z AUTO 21003KT //// // ////// 10/10 Q1033
FAVV Vereeniging, ZA Vereeniging Airport 2 7/4 30.50 FAVV 280600Z AUTO 32002KT //// // ////// 07/04 Q1033
JNB FAOR Johannesburg, ZA OR Tambo International Airport 6 13/7 30.50 FAOR 280630Z 31006KT CAVOK 13/07 Q1033 NOSIG
FABM Bethlehem, ZA Bethlehem Airport 1 7/5 30.50 FABM 280637Z 22001KT CAVOK 07/05 Q1033
TLC MMTO Toluca, MX Licenciado Adolfo Lopez Mateos International Airport 0 6 18/9 30.49 MMTO 280540Z 00000KT 6SM SCT070 18/09 A3049 RMK SLP062 57005 910 8/030 HZY
LXV KLXV Leadville, US Lake County Airport 3 0/-5 30.48 KLXV 280553Z AUTO 06003KT 10SM CLR 01/M05 A3048 RMK AO2 SLP197 T00061050 10156 20000 51009
K7BM 0 11/-7 30.48 K7BM 280635Z AUTO 00000KT 10SM SCT120 11/M07 A3048 RMK AO2
FAJB 0 9/7 30.47 FAJB 280600Z AUTO 00000KT //// // ////// 09/07 Q1032
HLA FALA Johannesburg, ZA Lanseria Airport 0 8/5 30.47 FALA 280600Z 00000KT CAVOK 08/05 Q1032 NOSIG
FDPP 2 14/11 30.47 FDPP 280600Z AUTO 34002KT //// // ////// 14/11 Q1032
MQP FAKN Mpumalanga, ZA Kruger Mpumalanga International Airport 2 14/13 30.44 FAKN 280600Z AUTO 26002KT //// // ////// 14/13 Q1031
NTY FAPN Pilanesberg, ZA Pilanesberg International Airport 0 9/3 30.44 FAPN 280600Z AUTO 00000KT //// // ////// 09/03 Q1031
PRY FAWB Pretoria, ZA Wonderboom Airport 0 / 30.44 FAWB 280600Z AUTO 00000KT //// // ////// ///// Q1031
FVRG 4 12/6 30.44 FVRG 280600Z 14004KT 100V160 CAVOK 12/06 Q1031 NOSIG
ERS FYWE Windhoek, NA Eros Airport 3 10/-1 30.44 FYWE 280600Z 15003KT CAVOK 10/M01 Q1031
HKGO 3 14/14 30.44 HKGO 280600Z AUTO VRB03KT 14/14 Q1031 A30.44
BFN FABL Bloemfontain, ZA Bram Fischer International Airport 2 8/-1 30.44 FABL 280623Z VRB02KT CAVOK 08/M01 Q1031 NOSIG
TEX KTEX Telluride, US Telluride Regional Airport 5 7/-4 30.43 KTEX 280635Z AUTO 15005KT 10SM CLR 07/M04 A3043 RMK AO2
HDS FAHS Hoedspruit, ZA Hoedspruit Air Force Base Airport 2 18/15 30.41 FAHS 280600Z AUTO 25002KT //// // ////// 18/15 Q1030
FVJN 14 13/10 30.41 FVJN 280600Z 11014KT 9999 FEW015 13/10 Q1030 NOSIG
MVZ FVMV Masvingo, ZW Masvingo International Airport 4 4.97 14/11 30.41 FVMV 280600Z 10004KT 8000 FEW008 14/11 Q1030 NOSIG
AXX KAXX Angel Fire, US Angel Fire Airport 0 3/-2 30.41 KAXX 280635Z AUTO 00000KT 10SM CLR 03/M03 A3041 RMK AO2 T00321027
KGNB Granby, US Granby Grand County Airport 0 4/-23 30.41 KGNB 280635Z AUTO 00000KT 10SM CLR 04/M23 A3041 RMK AO2 T00411232
MBD FAMM Mafeking, ZA Mmabatho International Airport 9 15/6 30.41 FAMM 280643Z AUTO 04009KT //// // ////// 15/06 Q1030
KIM FAKM Kimberley, ZA Kimberley Airport 2 12/9 30.41 FAKM 280644Z 05002KT CAVOK 12/09 Q1030
NLU MMSM Reyes Acozac, MX Santa Lucia Air Force Base 5 7 20/14 30.39 MMSM 280554Z 07005KT 7SM FEW020 SCT200 20/14 A3039 RMK 8/502 HZY AC
QRO MMQT Querétaro, MX Querétaro Intercontinental Airport 7 7 24/16 30.38 MMQT 280545Z 06007KT 7SM BKN020 24/16 A3038 RMK 8/500
MEX MMMX Mexico City, MX Licenciado Benito Juarez International Airport 8 8 23/12 30.38 MMMX 280546Z 28008KT 8SM SKC 23/12 A3038 NOSIG RMK SLP064 52046 910 ISOL CI HZY
GBE FBSK Gaborone, BW Sir Seretse Khama International Airport 5 12/8 30.38 FBSK 280600Z 13005KT CAVOK 12/08 Q1029 NOSIG
SHO FDSK SZ King Mswati III International Airport 2 16/13 30.38 FDSK 280600Z VRB02KT CAVOK 16/13 Q1029 NOSIG
VPY FQCH Chimoio, MZ Chimoio Airport 17/16 30.38 FQCH 280600Z /////KT 9999 BKN015 17/16 Q1029
VXC FQLC Lichinga, MZ Lichinga Airport 14 4.97 15/12 30.38 FQLC 280600Z 14014KT 8000 VCFG SCT009 15/12 Q1029
WDH FYWH Windhoek, NA Hosea Kutako International Airport 3 6/-1 30.38 FYWH 280600Z 26003KT CAVOK 06/M01 Q1029 NOSIG
ADD HAAB Addis Ababa, ET Addis Ababa Bole International Airport 3 20/8 30.38 HAAB 280600Z 25003KT CAVOK 20/08 Q1029 NOSIG
SUT HTSU Sumbawanga, TZ Sumbawanga Airport 7 15/12 30.38 HTSU 280600Z 13007KT 9999 FEW018 15/12 Q1029
UIO SEQM Quito, EC Mariscal Sucre International Airport 1 4.97 14/14 30.38 SEQM 280600Z 02001KT 8000 BCFG OVC004 14/14 Q1029 NOSIG RMK A3039
BOG SKBO Bogota, CO El Dorado International Airport 2 13/13 30.38 SKBO 280600Z VRB02KT 9999 SCT023 BKN080 13/13 Q1029 NOSIG